Time;durP1;ratioP1;P1;durP2;ratioP2;P2;SDS_P1;SDS_P2;PMS_P1;PMS_P2;Temp;Humidity;BMP_temperature;BMP_pressure;BME280_temperature;BME280_humidity;BME280_pressure;Samples;Min_cycle;Max_cycle;Signal;HPM_P1;HPM_P2
2023/06/24 00:01:49;;;;;;;12.23;9.85;;;22.00;80.80;;;;;;4994645;28;20046;-81
2023/06/24 00:04:16;;;;;;;13.43;10.30;;;21.90;80.90;;;;;;4994665;28;20047;-82
2023/06/24 00:06:42;;;;;;;14.48;10.70;;;21.80;81.00;;;;;;4994530;28;20141;-81
2023/06/24 00:09:08;;;;;;;11.32;10.00;;;21.80;81.10;;;;;;4995667;28;20476;-80
2023/06/24 00:11:33;;;;;;;13.20;10.38;;;21.70;81.20;;;;;;4995440;28;20112;-81
2023/06/24 00:13:59;;;;;;;14.27;10.75;;;21.70;81.30;;;;;;4995226;28;20046;-81
2023/06/24 00:16:28;;;;;;;15.32;12.02;;;21.60;81.40;;;;;;4995403;28;20046;-81
2023/06/24 00:18:58;;;;;;;16.65;12.90;;;21.60;81.50;;;;;;4995313;28;20046;-81
2023/06/24 00:21:29;;;;;;;16.38;12.65;;;21.50;81.50;;;;;;5010700;28;20128;-80
2023/06/24 00:23:56;;;;;;;14.48;12.10;;;21.50;81.70;;;;;;4994220;28;20050;-81
2023/06/24 00:26:22;;;;;;;16.73;12.48;;;21.50;81.80;;;;;;4993767;28;20125;-80
2023/06/24 00:28:47;;;;;;;15.57;12.27;;;21.40;81.80;;;;;;4995430;28;20133;-80
2023/06/24 00:31:13;;;;;;;15.35;11.77;;;21.40;81.90;;;;;;4995210;28;20136;-80
2023/06/24 00:33:38;;;;;;;14.57;12.40;;;21.40;81.90;;;;;;4994998;28;20561;-80
2023/06/24 00:36:06;;;;;;;15.30;12.18;;;21.30;81.90;;;;;;4995612;28;20034;-80
2023/06/24 00:38:32;;;;;;;15.93;12.55;;;21.30;82.10;;;;;;4995394;28;20176;-80
2023/06/24 00:40:59;;;;;;;16.13;13.63;;;21.20;82.10;;;;;;4994231;28;20125;-80
2023/06/24 00:43:24;;;;;;;18.67;14.02;;;21.20;82.20;;;;;;4995126;28;20046;-80
2023/06/24 00:45:52;;;;;;;18.40;14.15;;;21.10;82.30;;;;;;4993986;28;20069;-80
2023/06/24 00:48:20;;;;;;;16.52;14.05;;;21.10;82.40;;;;;;4994856;28;20567;-80
2023/06/24 00:50:45;;;;;;;17.23;14.90;;;21.10;82.50;;;;;;4995334;28;20043;-80
2023/06/24 00:53:14;;;;;;;19.13;15.13;;;21.00;82.60;;;;;;4995006;28;20046;-80
2023/06/24 00:55:40;;;;;;;19.02;15.60;;;20.90;82.60;;;;;;4994901;28;20050;-80
2023/06/24 00:58:05;;;;;;;19.90;16.25;;;20.90;82.70;;;;;;4994890;28;20049;-79
2023/06/24 01:00:34;;;;;;;22.70;17.55;;;20.80;82.80;;;;;;4994477;28;20061;-80
2023/06/24 01:03:00;;;;;;;22.70;17.35;;;20.80;83.10;;;;;;4994305;28;20055;-83
2023/06/24 01:05:28;;;;;;;23.17;18.90;;;20.80;83.30;;;;;;4994519;28;20056;-82
2023/06/24 01:07:55;;;;;;;25.75;19.55;;;20.70;83.50;;;;;;4994883;28;20436;-82
2023/06/24 01:10:23;;;;;;;25.02;19.58;;;20.70;83.60;;;;;;4996622;28;20052;-82
2023/06/24 01:12:49;;;;;;;25.02;19.40;;;20.70;83.80;;;;;;4994724;28;20511;-82
2023/06/24 01:15:16;;;;;;;25.45;18.98;;;20.60;83.80;;;;;;4993602;28;20050;-82
2023/06/24 01:18:02;;;;;;;25.52;19.70;;;20.60;84.00;;;;;;4994155;28;20049;-82
2023/06/24 01:20:40;;;;;;;29.77;20.45;;;20.60;83.70;;;;;;4993959;28;20080;-83
2023/06/24 01:23:21;;;;;;;28.25;21.50;;;20.50;83.90;;;;;;4989727;28;20105;-82
2023/06/24 01:25:49;;;;;;;30.23;22.40;;;20.50;84.00;;;;;;5008396;28;20046;-82
2023/06/24 01:28:43;;;;;;;32.20;23.80;;;20.50;84.30;;;;;;4993150;28;20526;-82
2023/06/24 01:31:44;;;;;;;;;;;20.40;84.10;;;;;;4994096;28;20143;-82
2023/06/24 01:34:25;;;;;;;30.88;23.02;;;20.30;83.60;;;;;;4940504;28;20339;-82
2023/06/24 01:37:17;;;;;;;32.08;23.25;;;20.30;84.40;;;;;;4997171;28;20119;-83
2023/06/24 01:40:10;;;;;;;32.83;24.65;;;20.30;84.40;;;;;;4998143;28;20061;-83
2023/06/24 01:42:44;;;;;;;32.30;24.30;;;20.20;84.40;;;;;;4992625;28;20043;-83
2023/06/24 01:45:14;;;;;;;32.25;24.23;;;20.20;84.70;;;;;;4995231;28;20787;-83
2023/06/24 01:47:44;;;;;;;33.15;23.60;;;20.10;84.80;;;;;;5012831;28;20096;-83
2023/06/24 01:50:12;;;;;;;29.90;21.75;;;20.10;84.90;;;;;;5013413;28;20138;-83
2023/06/24 01:52:41;;;;;;;28.15;21.17;;;20.00;84.90;;;;;;5007206;28;20038;-83
2023/06/24 01:55:09;;;;;;;28.20;21.00;;;20.00;84.90;;;;;;4998335;28;20511;-83
2023/06/24 01:57:36;;;;;;;25.95;19.60;;;20.00;85.20;;;;;;5015821;28;20454;-83
2023/06/24 02:00:06;;;;;;;25.65;19.08;;;19.90;85.30;;;;;;5017445;28;20522;-83
2023/06/24 02:02:33;;;;;;;22.55;18.15;;;19.90;85.20;;;;;;5014403;28;20049;-83
2023/06/24 02:05:02;;;;;;;22.67;17.55;;;19.80;85.20;;;;;;5016686;28;20056;-83
2023/06/24 02:07:31;;;;;;;21.00;16.70;;;19.80;85.30;;;;;;5000864;28;20046;-83
2023/06/24 02:09:59;;;;;;;21.45;16.88;;;19.80;85.60;;;;;;5014523;28;20053;-82
2023/06/24 02:12:26;;;;;;;20.55;15.57;;;19.70;85.60;;;;;;4999790;28;20042;-83
2023/06/24 02:14:53;;;;;;;20.02;15.38;;;19.70;85.70;;;;;;4982061;28;20053;-83
2023/06/24 02:17:21;;;;;;;19.00;14.73;;;19.70;85.60;;;;;;5011390;28;20042;-83
2023/06/24 02:19:48;;;;;;;18.40;13.88;;;19.70;85.80;;;;;;5015412;28;20137;-83
2023/06/24 02:22:14;;;;;;;16.33;12.70;;;19.70;85.90;;;;;;5009603;28;20046;-83
2023/06/24 02:24:41;;;;;;;15.45;11.77;;;19.60;85.90;;;;;;5017097;28;20069;-83
2023/06/24 02:27:08;;;;;;;15.82;12.40;;;19.60;85.90;;;;;;5017490;28;20049;-83
2023/06/24 02:29:37;;;;;;;15.65;12.02;;;19.50;85.80;;;;;;5016672;28;20403;-82
2023/06/24 02:32:03;;;;;;;14.10;10.80;;;19.50;85.70;;;;;;5015010;28;20095;-82
2023/06/24 02:34:29;;;;;;;14.25;10.60;;;19.50;85.80;;;;;;5015435;28;20045;-82
2023/06/24 02:36:54;;;;;;;15.10;11.07;;;19.40;85.90;;;;;;4975897;28;20141;-82
2023/06/24 02:39:20;;;;;;;13.30;10.18;;;19.40;86.00;;;;;;5016739;28;20072;-82
2023/06/24 02:41:47;;;;;;;14.73;10.05;;;19.40;86.10;;;;;;5006286;28;20069;-83
2023/06/24 02:44:13;;;;;;;12.55;9.38;;;19.30;86.10;;;;;;4995854;28;20053;-82
2023/06/24 02:46:41;;;;;;;13.75;9.55;;;19.30;86.00;;;;;;5000920;28;20042;-82
2023/06/24 02:49:09;;;;;;;12.13;9.15;;;19.30;86.10;;;;;;4996781;28;20046;-83
2023/06/24 02:51:35;;;;;;;10.98;8.60;;;19.30;86.20;;;;;;4996632;28;20453;-82
2023/06/24 02:54:02;;;;;;;12.70;8.48;;;19.20;86.10;;;;;;4996804;28;20048;-82
2023/06/24 02:56:28;;;;;;;10.90;8.48;;;19.20;86.10;;;;;;5001933;28;20046;-82
2023/06/24 02:58:54;;;;;;;12.98;8.55;;;19.20;86.10;;;;;;5015967;28;20552;-83
2023/06/24 03:01:24;;;;;;;9.93;7.80;;;19.10;85.90;;;;;;4988727;28;20078;-83
2023/06/24 03:03:53;;;;;;;10.45;7.85;;;19.00;85.70;;;;;;4996600;28;20101;-83
2023/06/24 03:06:19;;;;;;;10.30;8.30;;;18.90;85.40;;;;;;5000435;28;20038;-82
2023/06/24 03:08:45;;;;;;;11.50;7.70;;;18.80;85.70;;;;;;5006088;28;20412;-83
2023/06/24 03:11:14;;;;;;;10.32;8.18;;;18.80;86.70;;;;;;4997618;28;20133;-83
2023/06/24 03:13:40;;;;;;;9.25;7.68;;;18.80;87.10;;;;;;5010106;28;20034;-83
2023/06/24 03:16:06;;;;;;;11.25;7.35;;;18.70;87.30;;;;;;5003653;28;20052;-83
2023/06/24 03:18:31;;;;;;;10.43;7.00;;;18.70;87.40;;;;;;5013528;28;20054;-82
2023/06/24 03:20:57;;;;;;;8.75;7.28;;;18.70;87.30;;;;;;5014834;28;20046;-82
2023/06/24 03:23:23;;;;;;;11.10;7.72;;;18.70;87.50;;;;;;5012628;28;20049;-82
2023/06/24 03:25:48;;;;;;;9.70;7.07;;;18.60;87.60;;;;;;5014410;28;20061;-81
2023/06/24 03:28:14;;;;;;;8.68;6.95;;;18.60;87.70;;;;;;5000354;28;20397;-82
2023/06/24 03:30:39;;;;;;;9.35;7.45;;;18.50;87.70;;;;;;5000009;28;20097;-82
2023/06/24 03:33:05;;;;;;;10.75;6.88;;;18.50;87.70;;;;;;4984552;28;20135;-82
2023/06/24 03:35:32;;;;;;;9.07;7.18;;;18.50;87.60;;;;;;4995109;28;20112;-82
2023/06/24 03:37:58;;;;;;;8.93;6.65;;;18.50;87.80;;;;;;5003763;28;20484;-82
2023/06/24 03:40:24;;;;;;;10.20;6.72;;;18.40;87.60;;;;;;5014588;28;20093;-82
2023/06/24 03:42:49;;;;;;;10.02;7.10;;;18.50;87.70;;;;;;5004923;28;20088;-82
2023/06/24 03:45:15;;;;;;;8.73;6.80;;;18.40;87.90;;;;;;4996794;28;20038;-82
2023/06/24 03:47:41;;;;;;;8.32;6.43;;;18.40;88.00;;;;;;5006547;28;20538;-82
2023/06/24 03:50:07;;;;;;;8.95;7.10;;;18.30;88.00;;;;;;4994753;28;20058;-82
2023/06/24 03:52:32;;;;;;;9.05;6.70;;;18.30;88.30;;;;;;4996771;28;20042;-83
2023/06/24 03:54:58;;;;;;;8.27;6.63;;;18.30;87.90;;;;;;4994950;28;20404;-83
2023/06/24 03:57:24;;;;;;;9.40;6.90;;;18.30;87.90;;;;;;4979305;28;20496;-83
2023/06/24 03:59:49;;;;;;;8.18;6.53;;;18.20;88.00;;;;;;4994367;28;20552;-82
2023/06/24 04:02:15;;;;;;;8.35;7.00;;;18.20;88.10;;;;;;4997526;28;20054;-82
2023/06/24 04:04:41;;;;;;;8.52;6.72;;;18.20;88.20;;;;;;5015391;28;20626;-83
2023/06/24 04:07:06;;;;;;;9.10;6.57;;;18.20;88.20;;;;;;5013141;28;20085;-82
2023/06/24 04:09:35;;;;;;;8.80;6.78;;;18.20;88.10;;;;;;5013920;28;20096;-82
2023/06/24 04:12:01;;;;;;;9.88;7.68;;;18.20;88.30;;;;;;5014475;28;20064;-83
2023/06/24 04:14:28;;;;;;;8.30;6.93;;;18.20;88.40;;;;;;4994524;28;20050;-82
2023/06/24 04:16:53;;;;;;;12.38;6.93;;;18.20;88.40;;;;;;5007563;28;20053;-83
2023/06/24 04:19:19;;;;;;;9.02;7.22;;;18.10;88.10;;;;;;5012131;28;20124;-83
2023/06/24 04:21:45;;;;;;;7.57;6.53;;;18.10;88.00;;;;;;4998594;28;20381;-83
2023/06/24 04:24:10;;;;;;;10.02;6.72;;;18.10;88.20;;;;;;5012027;28;20042;-83
2023/06/24 04:26:36;;;;;;;9.02;6.95;;;18.00;88.10;;;;;;5003162;28;20118;-82
2023/06/24 04:29:02;;;;;;;8.25;6.78;;;18.10;88.20;;;;;;4991065;28;20064;-83
2023/06/24 04:31:28;;;;;;;8.85;6.85;;;18.00;88.30;;;;;;5004547;28;20042;-83
2023/06/24 04:33:53;;;;;;;10.38;6.57;;;18.00;88.20;;;;;;4999836;28;20042;-83
2023/06/24 04:36:19;;;;;;;8.32;7.10;;;18.00;88.20;;;;;;4994918;28;20165;-83
2023/06/24 04:38:45;;;;;;;8.82;6.65;;;17.90;88.30;;;;;;5010078;28;20435;-82
2023/06/24 04:41:10;;;;;;;9.35;7.85;;;17.90;88.40;;;;;;5010375;28;20046;-83
2023/06/24 04:43:36;;;;;;;8.60;7.00;;;18.00;88.40;;;;;;4991513;28;20685;-83
2023/06/24 04:46:02;;;;;;;8.38;7.10;;;17.90;87.90;;;;;;4992359;28;20050;-83
2023/06/24 04:48:28;;;;;;;8.40;7.00;;;17.90;87.30;;;;;;4995743;28;20065;-82
2023/06/24 04:50:54;;;;;;;12.10;7.63;;;17.80;86.60;;;;;;4997082;28;20129;-82
2023/06/24 04:53:21;;;;;;;8.90;7.38;;;17.80;88.00;;;;;;4999273;28;20119;-82
2023/06/24 04:55:46;;;;;;;9.07;7.05;;;17.80;86.70;;;;;;4995833;28;20500;-83
2023/06/24 04:58:12;;;;;;;8.75;6.80;;;17.80;86.70;;;;;;5010353;28;20080;-83
2023/06/24 05:00:38;;;;;;;9.40;7.00;;;17.80;86.60;;;;;;5007303;28;20404;-82
2023/06/24 05:03:03;;;;;;;9.20;7.20;;;17.70;86.30;;;;;;4998541;28;20463;-82
2023/06/24 05:05:29;;;;;;;7.75;6.45;;;17.70;86.50;;;;;;4978051;28;20054;-82
2023/06/24 05:07:55;;;;;;;9.48;7.80;;;17.70;87.00;;;;;;4995650;28;20049;-82
2023/06/24 05:10:20;;;;;;;8.95;7.18;;;17.70;87.00;;;;;;4994461;28;20046;-81
2023/06/24 05:12:46;;;;;;;9.35;7.53;;;17.70;86.90;;;;;;4994847;28;20046;-82
2023/06/24 05:15:12;;;;;;;13.70;10.50;;;17.70;86.70;;;;;;4995306;28;20088;-82
2023/06/24 05:17:37;;;;;;;10.23;8.93;;;17.70;89.00;;;;;;4995329;28;20060;-83
2023/06/24 05:20:03;;;;;;;16.17;13.00;;;17.80;89.70;;;;;;5014622;28;20420;-81
2023/06/24 05:22:29;;;;;;;9.63;7.80;;;17.80;90.70;;;;;;5005865;28;20503;-82
2023/06/24 05:24:54;;;;;;;17.65;12.27;;;17.80;90.20;;;;;;5004871;28;20447;-81
2023/06/24 05:27:20;;;;;;;9.13;8.02;;;17.80;90.70;;;;;;5000456;28;20484;-82
2023/06/24 05:29:46;;;;;;;12.55;9.07;;;17.80;90.40;;;;;;4997061;28;20042;-82
2023/06/24 05:32:12;;;;;;;10.95;9.07;;;17.90;90.50;;;;;;4997261;28;20057;-83
2023/06/24 05:34:37;;;;;;;14.65;11.07;;;17.90;90.30;;;;;;5011140;28;20046;-82
2023/06/24 05:37:03;;;;;;;14.50;11.05;;;17.90;90.30;;;;;;5000298;28;20125;-81
2023/06/24 05:39:31;;;;;;;12.40;9.15;;;17.90;90.90;;;;;;4995207;28;20138;-81
2023/06/24 05:41:57;;;;;;;16.85;12.32;;;18.00;90.90;;;;;;4994770;28;20065;-80
2023/06/24 05:44:23;;;;;;;14.57;11.07;;;18.00;91.50;;;;;;4993833;28;20121;-81
2023/06/24 05:46:49;;;;;;;12.20;9.05;;;18.10;91.70;;;;;;4994729;28;20035;-80
2023/06/24 05:49:14;;;;;;;13.30;11.32;;;18.10;91.30;;;;;;4994370;28;20042;-81
2023/06/24 05:51:40;;;;;;;16.85;12.05;;;18.10;91.60;;;;;;4993109;28;20054;-81
2023/06/24 05:54:07;;;;;;;12.90;10.98;;;18.10;91.90;;;;;;4994683;28;20085;-80
2023/06/24 05:56:33;;;;;;;10.82;8.85;;;18.20;91.30;;;;;;4994149;28;20047;-80
2023/06/24 05:58:59;;;;;;;12.57;10.05;;;18.20;91.20;;;;;;4993988;28;20054;-81
2023/06/24 06:01:24;;;;;;;12.82;11.35;;;18.30;91.60;;;;;;4994956;28;20083;-80
2023/06/24 06:03:50;;;;;;;12.30;10.68;;;18.30;91.70;;;;;;4994123;28;20100;-81
2023/06/24 06:06:16;;;;;;;12.90;11.23;;;18.30;91.90;;;;;;4994426;28;20066;-80
2023/06/24 06:08:41;;;;;;;14.57;9.77;;;18.40;92.10;;;;;;4993673;28;20042;-80
2023/06/24 06:11:07;;;;;;;16.38;11.32;;;18.40;91.80;;;;;;4994589;28;20061;-79
2023/06/24 06:13:33;;;;;;;11.05;9.45;;;18.50;92.20;;;;;;4994678;28;20042;-80
2023/06/24 06:15:59;;;;;;;12.40;10.48;;;18.50;91.80;;;;;;4994548;28;20060;-80
2023/06/24 06:18:24;;;;;;;12.00;9.80;;;18.60;92.00;;;;;;4994401;28;20125;-80
2023/06/24 06:20:50;;;;;;;10.00;8.13;;;18.70;91.40;;;;;;4994105;28;20043;-80
2023/06/24 06:23:16;;;;;;;15.20;10.93;;;18.70;91.10;;;;;;4994152;28;20039;-79
2023/06/24 06:25:42;;;;;;;13.90;10.63;;;18.70;91.80;;;;;;4994139;28;20053;-80
2023/06/24 06:28:08;;;;;;;11.70;9.57;;;18.80;92.50;;;;;;4994296;28;20054;-80
2023/06/24 06:30:33;;;;;;;13.02;10.93;;;18.90;91.90;;;;;;5002960;28;20042;-81
2023/06/24 06:32:59;;;;;;;11.02;9.30;;;19.00;92.30;;;;;;4994988;28;20042;-83
2023/06/24 06:35:25;;;;;;;12.60;10.10;;;19.10;91.80;;;;;;4993129;28;20042;-84
2023/06/24 06:37:54;;;;;;;15.57;12.10;;;19.20;91.70;;;;;;4992557;28;20073;-83
2023/06/24 06:40:23;;;;;;;17.20;12.07;;;19.20;92.30;;;;;;4978645;28;20129;-81
2023/06/24 06:42:49;;;;;;;12.85;11.15;;;19.30;92.90;;;;;;4996673;28;20046;-81
2023/06/24 06:45:15;;;;;;;14.27;12.57;;;19.40;92.40;;;;;;4995683;28;20140;-82
2023/06/24 06:47:40;;;;;;;16.55;13.20;;;19.40;92.70;;;;;;5001196;28;20077;-82
2023/06/24 06:50:07;;;;;;;12.30;10.43;;;19.60;93.00;;;;;;5004788;28;20046;-82
2023/06/24 06:52:33;;;;;;;18.02;13.50;;;19.70;92.40;;;;;;4996034;28;20408;-83
2023/06/24 06:54:59;;;;;;;15.10;12.75;;;19.80;92.80;;;;;;4985071;28;20076;-83
2023/06/24 06:57:25;;;;;;;11.45;10.25;;;19.90;92.60;;;;;;4995270;28;20047;-83
2023/06/24 06:59:51;;;;;;;15.82;12.00;;;19.90;92.00;;;;;;5015218;28;20507;-83
2023/06/24 07:02:20;;;;;;;13.55;10.98;;;20.10;91.90;;;;;;4998113;28;20061;-82
2023/06/24 07:04:47;;;;;;;18.60;13.07;;;20.20;92.20;;;;;;4997376;28;20061;-83
2023/06/24 07:07:13;;;;;;;14.90;12.02;;;20.30;92.40;;;;;;4997013;28;20542;-82
2023/06/24 07:09:39;;;;;;;14.93;11.73;;;20.40;92.60;;;;;;5012678;28;20049;-82
2023/06/24 07:12:06;;;;;;;14.85;11.35;;;20.50;92.10;;;;;;5001510;28;21594;-82
2023/06/24 07:14:32;;;;;;;13.35;10.63;;;20.60;91.90;;;;;;5009764;28;20057;-82
2023/06/24 07:16:58;;;;;;;16.60;10.95;;;20.80;91.90;;;;;;4999617;28;20050;-82
2023/06/24 07:19:23;;;;;;;15.73;11.85;;;20.90;91.60;;;;;;5000320;28;20050;-83
2023/06/24 07:21:49;;;;;;;12.95;10.50;;;21.00;91.80;;;;;;4994933;28;20085;-82
2023/06/24 07:24:15;;;;;;;13.02;10.48;;;21.20;91.80;;;;;;4992192;28;20073;-83
2023/06/24 07:26:40;;;;;;;11.65;9.10;;;21.30;91.10;;;;;;5008400;28;20042;-82
2023/06/24 07:29:07;;;;;;;13.25;9.50;;;21.40;90.30;;;;;;4999290;28;20069;-82
2023/06/24 07:31:33;;;;;;;10.65;8.73;;;21.50;89.90;;;;;;4986711;28;20054;-82
2023/06/24 07:33:59;;;;;;;9.65;7.53;;;21.60;89.40;;;;;;4979833;28;20096;-82
2023/06/24 07:36:25;;;;;;;9.85;7.28;;;21.60;88.60;;;;;;4990263;28;20464;-82
2023/06/24 07:38:50;;;;;;;9.63;7.05;;;21.70;88.10;;;;;;4977389;28;20061;-82
2023/06/24 07:41:18;;;;;;;10.60;7.90;;;21.80;88.10;;;;;;4976427;28;20051;-82
2023/06/24 07:43:44;;;;;;;10.90;7.80;;;21.80;87.60;;;;;;4985121;28;20050;-82
2023/06/24 07:46:10;;;;;;;12.23;7.80;;;21.90;88.10;;;;;;5006501;28;20404;-82
2023/06/24 07:48:35;;;;;;;13.07;7.20;;;21.90;88.60;;;;;;4998372;28;20754;-82
2023/06/24 07:51:01;;;;;;;9.32;7.45;;;22.00;87.40;;;;;;5006761;28;20488;-81
2023/06/24 07:53:27;;;;;;;10.50;6.95;;;22.10;86.20;;;;;;4995256;28;20051;-82
2023/06/24 07:55:52;;;;;;;9.80;7.90;;;22.20;86.10;;;;;;5015434;28;20522;-82
2023/06/24 07:58:21;;;;;;;8.93;6.70;;;22.30;86.90;;;;;;4989543;28;20104;-81
2023/06/24 08:00:47;;;;;;;8.27;5.68;;;22.40;86.40;;;;;;4997032;28;20062;-81
2023/06/24 08:03:13;;;;;;;9.50;5.25;;;22.40;84.80;;;;;;4995388;28;20054;-81
2023/06/24 08:05:41;;;;;;;5.95;4.25;;;22.50;84.00;;;;;;4999961;28;20038;-81
2023/06/24 08:08:08;;;;;;;6.13;3.88;;;22.60;83.30;;;;;;4994835;28;20046;-82
2023/06/24 08:10:34;;;;;;;9.02;3.85;;;22.60;82.40;;;;;;4995329;28;20077;-82
2023/06/24 08:13:03;;;;;;;6.78;3.65;;;22.70;80.60;;;;;;4994742;28;20039;-81
2023/06/24 08:15:28;;;;;;;6.15;4.00;;;22.80;80.00;;;;;;4997004;28;20493;-81
2023/06/24 08:17:55;;;;;;;7.50;4.30;;;22.90;80.50;;;;;;4994494;28;20149;-81
2023/06/24 08:20:21;;;;;;;7.72;3.97;;;23.00;79.90;;;;;;4995984;28;20374;-81
2023/06/24 08:22:47;;;;;;;6.57;3.88;;;23.10;78.90;;;;;;5000496;28;20061;-82
2023/06/24 08:25:13;;;;;;;8.20;4.15;;;23.20;80.00;;;;;;5003229;28;20043;-81
2023/06/24 08:27:39;;;;;;;8.98;4.20;;;23.20;79.10;;;;;;4994529;28;20096;-82
2023/06/24 08:30:06;;;;;;;7.82;4.18;;;23.30;78.80;;;;;;5005834;28;20049;-81
2023/06/24 08:32:32;;;;;;;8.98;4.60;;;23.40;79.10;;;;;;5008780;28;20053;-81
2023/06/24 08:34:58;;;;;;;10.32;4.78;;;23.50;77.60;;;;;;4995660;28;20130;-81
2023/06/24 08:37:24;;;;;;;7.93;4.68;;;23.60;77.60;;;;;;5005553;28;20145;-81
2023/06/24 08:39:49;;;;;;;9.88;4.65;;;23.70;75.80;;;;;;4996155;28;20049;-81
2023/06/24 08:42:15;;;;;;;6.57;4.30;;;23.70;77.50;;;;;;5001353;28;20042;-81
2023/06/24 08:44:41;;;;;;;6.80;4.38;;;23.80;76.20;;;;;;4999181;28;20057;-82
2023/06/24 08:47:06;;;;;;;9.23;4.03;;;23.80;76.60;;;;;;4995364;28;20071;-81
2023/06/24 08:49:34;;;;;;;6.10;3.40;;;23.90;77.80;;;;;;5000271;28;20049;-81
2023/06/24 08:51:59;;;;;;;5.75;2.90;;;23.90;75.90;;;;;;4995325;28;20053;-81
2023/06/24 08:54:25;;;;;;;4.45;2.83;;;24.00;72.60;;;;;;4993684;28;20125;-82
2023/06/24 08:56:52;;;;;;;7.90;3.58;;;24.10;72.50;;;;;;5002759;28;20046;-82
2023/06/24 08:59:20;;;;;;;6.85;3.50;;;24.20;73.20;;;;;;4990145;28;20109;-80
2023/06/24 09:01:47;;;;;;;6.82;3.78;;;24.30;74.40;;;;;;5008372;28;20487;-82
2023/06/24 09:04:13;;;;;;;6.97;4.07;;;24.40;74.40;;;;;;5014567;28;20092;-80
2023/06/24 09:06:38;;;;;;;8.82;3.47;;;24.50;73.70;;;;;;5012915;28;20041;-81
2023/06/24 09:09:04;;;;;;;6.68;4.20;;;24.50;74.00;;;;;;4991619;28;20046;-82
2023/06/24 09:11:32;;;;;;;8.10;4.20;;;24.60;74.10;;;;;;4994498;28;20046;-82
2023/06/24 09:14:01;;;;;;;6.22;3.67;;;24.70;72.40;;;;;;4997601;28;20496;-82
2023/06/24 09:16:29;;;;;;;7.20;3.80;;;24.70;75.10;;;;;;4994174;28;20046;-82
2023/06/24 09:18:55;;;;;;;8.60;3.83;;;24.80;73.40;;;;;;4994753;28;20042;-81
2023/06/24 09:21:30;;;;;;;6.18;3.90;;;24.90;72.40;;;;;;4993717;28;20049;-83
2023/06/24 09:23:57;;;;;;;7.28;3.97;;;25.00;70.90;;;;;;4994565;28;20053;-83
2023/06/24 09:26:27;;;;;;;8.65;3.80;;;25.10;69.40;;;;;;4994500;28;20412;-83
2023/06/24 09:28:54;;;;;;;7.20;3.85;;;25.20;69.70;;;;;;4978037;28;20101;-83
2023/06/24 09:31:20;;;;;;;7.13;3.63;;;25.30;69.70;;;;;;5004644;28;20110;-83
2023/06/24 09:33:47;;;;;;;7.72;4.05;;;25.30;71.10;;;;;;4994714;28;20061;-83
2023/06/24 09:36:16;;;;;;;10.02;3.60;;;25.40;71.00;;;;;;4996413;28;20083;-84
2023/06/24 09:38:44;;;;;;;10.05;3.80;;;25.50;71.80;;;;;;4992185;28;20043;-82
2023/06/24 09:41:11;;;;;;;8.80;3.63;;;25.60;70.90;;;;;;5004525;28;20038;-83
2023/06/24 09:43:39;;;;;;;16.25;4.57;;;25.70;69.10;;;;;;4994026;28;20077;-83
2023/06/24 09:46:06;;;;;;;12.70;4.78;;;25.80;68.30;;;;;;4976604;28;20049;-84
2023/06/24 09:48:35;;;;;;;10.90;3.80;;;25.80;66.70;;;;;;4993329;28;20046;-84
2023/06/24 09:51:03;;;;;;;7.85;3.95;;;25.90;65.40;;;;;;5001607;28;20045;-82
2023/06/24 09:53:33;;;;;;;8.10;3.78;;;26.00;67.50;;;;;;4985853;28;20038;-82
2023/06/24 09:56:07;;;;;;;8.35;3.80;;;26.10;66.70;;;;;;4993379;28;20042;-82
2023/06/24 09:58:36;;;;;;;8.60;3.67;;;26.10;67.10;;;;;;4979367;28;20051;-83
2023/06/24 10:01:04;;;;;;;8.77;3.95;;;26.30;67.20;;;;;;5000722;28;20057;-83
2023/06/24 10:03:37;;;;;;;7.88;3.78;;;26.30;67.30;;;;;;4977862;28;20057;-83
2023/06/24 10:06:04;;;;;;;6.97;4.10;;;26.40;65.80;;;;;;4992818;28;20054;-82
2023/06/24 10:08:31;;;;;;;6.32;3.85;;;26.50;64.70;;;;;;4994541;28;20038;-83
2023/06/24 10:10:58;;;;;;;17.13;4.55;;;26.60;67.60;;;;;;4984278;28;20046;-84
2023/06/24 10:13:28;;;;;;;7.47;3.58;;;26.60;63.70;;;;;;4991206;28;20057;-83
2023/06/24 10:15:55;;;;;;;9.05;3.90;;;26.70;64.90;;;;;;4992088;28;20112;-83
2023/06/24 10:18:35;;;;;;;12.75;3.97;;;26.70;65.50;;;;;;4996018;28;20050;-83
2023/06/24 10:21:01;;;;;;;9.68;3.85;;;26.80;65.40;;;;;;4997923;28;20047;-83
2023/06/24 10:23:41;;;;;;;10.07;3.95;;;26.90;65.20;;;;;;4996848;28;20092;-83
2023/06/24 10:26:28;;;;;;;7.80;3.70;;;27.00;66.10;;;;;;4998257;28;20133;-83
2023/06/24 10:29:06;;;;;;;8.77;3.60;;;27.10;64.10;;;;;;5016653;28;20061;-84
2023/06/24 10:31:40;;;;;;;7.00;3.30;;;27.20;63.50;;;;;;5009686;28;20054;-87
2023/06/24 10:34:32;;;;;;;9.63;3.85;;;27.30;63.20;;;;;;4997873;28;20093;-86
2023/06/24 10:37:14;;;;;;;8.82;3.55;;;27.40;61.10;;;;;;4990206;28;20053;-84
2023/06/24 10:39:49;;;;;;;9.68;3.47;;;27.40;58.90;;;;;;4997953;28;20093;-84
2023/06/24 10:42:23;;;;;;;6.20;3.38;;;27.50;60.00;;;;;;5006987;28;20053;-83
2023/06/24 10:44:50;;;;;;;6.07;3.35;;;27.50;58.90;;;;;;5012196;28;20046;-85
2023/06/24 10:47:16;;;;;;;7.85;2.90;;;27.60;58.30;;;;;;5004431;28;20046;-84
2023/06/24 10:49:42;;;;;;;8.18;3.47;;;27.60;58.40;;;;;;4998629;28;20085;-86
2023/06/24 10:52:11;;;;;;;9.40;3.20;;;27.70;57.10;;;;;;5004113;28;20065;-84
2023/06/24 10:54:38;;;;;;;10.02;3.40;;;27.70;57.40;;;;;;5015558;28;20108;-83
2023/06/24 10:57:07;;;;;;;14.75;3.50;;;27.80;57.70;;;;;;5002362;28;20471;-84
2023/06/24 10:59:40;;;;;;;7.30;3.35;;;27.80;56.70;;;;;;5000336;28;20093;-84
2023/06/24 11:02:07;;;;;;;8.23;3.70;;;27.80;62.40;;;;;;5001770;28;20068;-85
2023/06/24 11:04:32;;;;;;;9.18;3.70;;;27.90;60.00;;;;;;5017162;28;20061;-85
2023/06/24 11:07:02;;;;;;;7.00;3.50;;;27.90;57.90;;;;;;5017400;28;20045;-85
2023/06/24 11:09:28;;;;;;;5.53;3.10;;;28.00;61.90;;;;;;4998587;28;20507;-86
2023/06/24 11:11:54;;;;;;;7.05;3.20;;;28.10;61.50;;;;;;5012413;28;20038;-87
2023/06/24 11:14:20;;;;;;;7.38;2.95;;;28.10;58.30;;;;;;4980529;28;20042;-86
2023/06/24 11:16:46;;;;;;;6.25;3.00;;;28.10;57.90;;;;;;5008029;28;20050;-86
2023/06/24 11:19:11;;;;;;;6.07;3.17;;;28.20;56.40;;;;;;4998986;28;20076;-87
2023/06/24 11:21:37;;;;;;;7.90;3.50;;;28.30;60.80;;;;;;4996879;28;20042;-85
2023/06/24 11:24:03;;;;;;;6.85;3.15;;;28.30;57.50;;;;;;5015662;28;20046;-85
2023/06/24 11:26:29;;;;;;;9.32;3.38;;;28.30;57.10;;;;;;5003623;28;20039;-85
2023/06/24 11:28:55;;;;;;;6.43;3.20;;;28.30;56.30;;;;;;5012308;28;20052;-86
2023/06/24 11:31:27;;;;;;;5.82;3.38;;;28.30;59.30;;;;;;5006092;28;20407;-85
2023/06/24 11:33:53;;;;;;;7.00;3.10;;;28.40;58.10;;;;;;4994992;28;20102;-85
2023/06/24 11:36:19;;;;;;;6.75;3.40;;;28.40;56.60;;;;;;5006410;28;20484;-84
2023/06/24 11:38:48;;;;;;;6.25;3.35;;;28.40;55.80;;;;;;5008206;28;20081;-85
2023/06/24 11:41:15;;;;;;;8.38;3.50;;;28.40;57.70;;;;;;4998515;28;20046;-85
2023/06/24 11:43:45;;;;;;;7.28;3.83;;;28.40;58.90;;;;;;5006436;28;20487;-85
2023/06/24 11:46:21;;;;;;;10.55;4.13;;;28.40;58.20;;;;;;4988549;28;20046;-86
2023/06/24 11:48:47;;;;;;;5.60;3.58;;;28.40;57.00;;;;;;4989686;28;20050;-86
2023/06/24 11:51:13;;;;;;;6.32;3.88;;;28.40;59.50;;;;;;4992583;28;20041;-90
2023/06/24 11:53:44;;;;;;;6.22;4.05;;;28.40;57.70;;;;;;4980566;28;20043;-86
2023/06/24 11:56:10;;;;;;;7.85;3.90;;;28.30;57.30;;;;;;4991313;28;20042;-86
2023/06/24 11:58:35;;;;;;;6.97;4.00;;;28.30;57.40;;;;;;4986232;28;20047;-87
2023/06/24 12:01:02;;;;;;;5.80;3.70;;;28.30;57.90;;;;;;4986914;28;20409;-86
2023/06/24 12:03:32;;;;;;;5.57;3.22;;;28.40;59.80;;;;;;4994691;28;20448;-84
2023/06/24 12:05:58;;;;;;;5.93;3.70;;;28.40;64.20;;;;;;4999360;28;20050;-86
2023/06/24 12:08:23;;;;;;;8.43;4.00;;;28.50;60.80;;;;;;4995877;28;20137;-86
2023/06/24 12:10:50;;;;;;;6.85;3.70;;;28.60;57.90;;;;;;4994764;28;20042;-87
2023/06/24 12:13:15;;;;;;;5.32;3.28;;;28.60;57.80;;;;;;4987900;28;20047;-85
2023/06/24 12:15:42;;;;;;;6.45;3.70;;;28.70;60.60;;;;;;5006851;28;20049;-85
2023/06/24 12:18:08;;;;;;;6.47;3.65;;;28.70;60.30;;;;;;4987929;28;20085;-86
2023/06/24 12:20:36;;;;;;;6.28;3.92;;;28.80;58.30;;;;;;4977398;28;20039;-86
2023/06/24 12:23:03;;;;;;;7.95;3.38;;;28.90;57.10;;;;;;4993162;28;20054;-87
2023/06/24 12:25:29;;;;;;;6.60;3.88;;;28.90;58.40;;;;;;4995792;28;20050;-86
2023/06/24 12:27:55;;;;;;;8.40;3.72;;;28.90;58.10;;;;;;4986070;28;20050;-87
2023/06/24 12:30:23;;;;;;;5.88;3.50;;;29.00;57.30;;;;;;4979924;28;20034;-86
2023/06/24 12:32:52;;;;;;;7.00;3.40;;;29.00;56.90;;;;;;4994935;28;20108;-86
2023/06/24 12:35:18;;;;;;;6.53;3.40;;;29.00;60.10;;;;;;4988928;28;20043;-85
2023/06/24 12:37:45;;;;;;;8.45;3.70;;;29.00;61.90;;;;;;4990968;28;20042;-86
2023/06/24 12:40:11;;;;;;;5.55;3.20;;;29.00;59.00;;;;;;4960128;28;20137;-86